• Join FlightAware (Why Join?)
  • Login
  • US Flag 
02:19AM EDT


 

Airport Tracker/Info


-or-


 

Live Flight TrackerFlight Track Log ✈ UAL1083 ✈ 29-Jul-2013 ✈ KLAX - KCLE

Flight Track Log - Related Links

Times and Time Zones

All times are in EDT time to prevent confusion due to time zone crossing. See the UAL1083 flight status page for this flight to view local times or setup timezone preferences in your user account.

Time Position Orientation Groundspeed Altitude Reporting Facility
EDT Latitude Longitude Course Direction KTS MPH feet Rate Location/Type
04:55PM 33.9108 -118.5317 251° West 245 282 4,200  Level Los Angeles Center
04:56PM 33.8878 -118.6125 251° West 255 293 7,100 2,700 Climbing Los Angeles Center
04:57PM 33.8233 -118.6244 189° South 254 292 9,800 2,220 Climbing Los Angeles Center
04:58PM 33.8306 -118.5422 84° East 300 345 11,700 1,740 Climbing Los Angeles Center
04:59PM 33.9072 -118.4614 41° Northeast 353 406 13,500 1,920 Climbing Los Angeles Center
05:00PM 33.9725 -118.3661 50° Northeast 372 428 15,700 2,040 Climbing Los Angeles Center
05:01PM 34.0325 -118.2581 56° Northeast 381 438 17,800 1,620 Climbing Los Angeles Center
05:02PM 34.0972 -118.1461 55° Northeast 395 455 19,100 1,200 Climbing Los Angeles Center
05:03PM 34.1664 -118.0225 56° Northeast 431 496 20,400 1,620 Climbing Los Angeles Center
05:04PM 34.2525 -117.8686 56° Northeast 453 521 22,500 1,680 Climbing Los Angeles Center
05:05PM 34.3253 -117.7386 56° Northeast 464 534 23,900 1,260 Climbing Los Angeles Center
05:06PM 34.4044 -117.5964 56° Northeast 479 551 25,200 1,200 Climbing Los Angeles Center
05:07PM 34.4811 -117.4572 56° Northeast 495 570 26,500 1,140 Climbing Los Angeles Center
05:08PM 34.5725 -117.3306 49° Northeast 504 580 27,600 1,200 Climbing Los Angeles Center
05:09PM 34.6647 -117.2019 49° Northeast 509 586 29,000 1,260 Climbing Los Angeles Center
05:10PM 34.7553 -117.0719 50° Northeast 509 586 30,300 1,320 Climbing Los Angeles Center
05:11PM 34.8650 -116.9183 49° Northeast 506 582 31,800 1,140 Climbing Los Angeles Center
05:12PM 34.9567 -116.7881 49° Northeast 507 583 32,700 960 Climbing Los Angeles Center
05:13PM 35.0489 -116.6558 50° Northeast 512 589 33,800 840 Climbing Los Angeles Center
05:14PM 35.1406 -116.5247 49° Northeast 512 589 34,700 780 Climbing Los Angeles Center
05:16PM 35.2517 -116.3672 49° Northeast 510 587 35,600 720 Climbing Los Angeles Center
05:17PM 35.3633 -116.2050 50° Northeast 519 597 36,300 660 Climbing Los Angeles Center
05:18PM 35.4556 -116.0700 50° Northeast 520 598 37,000 300 Climbing Los Angeles Center
05:19PM 35.5519 -115.9339 49° Northeast 526 605 37,000  Level Los Angeles Center
05:20PM 35.6572 -115.7806 50° Northeast 522 601 37,000  Level Los Angeles Center
05:21PM 35.7514 -115.6447 49° Northeast 524 603 37,000  Level Los Angeles Center
05:22PM 35.8275 -115.4964 58° Northeast 519 597 37,000  Level Los Angeles Center
05:23PM 35.8842 -115.3347 67° East 519 597 37,000  Level Los Angeles Center
05:24PM 35.9503 -115.1433 67° East 512 589 37,000  Level Los Angeles Center
05:25PM 36.0075 -114.9814 66° East 516 594 37,000  Level Los Angeles Center
05:26PM 36.0642 -114.8189 67° East 518 596 37,000  Level Los Angeles Center
05:27PM 36.1222 -114.6544 66° East 522 601 37,000  Level Los Angeles Center
05:28PM 36.1786 -114.4883 67° East 525 604 37,000  Level Los Angeles Center
05:29PM 36.2356 -114.3219 67° East 526 605 37,000  Level Los Angeles Center
05:30PM 36.3058 -114.1208 67° East 530 610 37,000  Level Los Angeles Center
05:31PM 36.3617 -113.9531 68° East 529 609 37,000  Level Los Angeles Center
05:32PM 36.4194 -113.7842 67° East 531 611 37,000  Level Los Angeles Center
05:33PM 36.4750 -113.6167 68° East 528 608 37,000  Level Los Angeles Center
05:34PM 36.5364 -113.4361 67° East 526 605 37,000  Level Los Angeles Center
05:35PM 36.5925 -113.2689 67° East 526 605 37,000  Level Los Angeles Center
05:36PM 36.6481 -113.1022 67° East 524 603 37,000  Level Los Angeles Center
05:37PM 36.7156 -112.9022 67° East 525 604 37,000  Level Los Angeles Center
05:38PM 36.7703 -112.7342 68° East 527 606 37,000  Level Los Angeles Center
05:39PM 36.8247 -112.5664 68° East 525 604 37,000  Level Los Angeles Center
05:40PM 36.8800 -112.3975 68° East 529 609 37,000  Level Los Angeles Center
05:41PM 36.9339 -112.2286 68° East 527 606 37,000  Level Los Angeles Center
05:42PM 36.9994 -112.0261 68° East 527 606 37,000  Level Los Angeles Center
05:43PM 37.0536 -111.8561 68° East 529 609 37,000  Level Los Angeles Center
05:44PM 37.1072 -111.6858 68° East 529 609 37,000  Level Los Angeles Center
05:45PM 37.1600 -111.5161 69° East 529 609 37,000  Level Denver Center
05:47PM 37.2136 -111.3461 68° East 527 606 37,000  Level Denver Center
05:48PM 37.2650 -111.1767 69° East 523 602 37,000  Level Denver Center
05:49PM 37.3172 -111.0067 69° East 524 603 37,000  Level Denver Center
05:50PM 37.3797 -110.8019 69° East 526 605 37,000  Level Denver Center
05:51PM 37.4319 -110.6308 69° East 526 605 37,000  Level Denver Center
05:52PM 37.4833 -110.4647 69° East 526 605 37,000  Level Denver Center
05:53PM 37.5417 -110.2706 69° East 529 609 37,000  Level Denver Center
05:54PM 37.5914 -110.1039 69° East 529 609 37,000  Level Denver Center
05:55PM 37.6489 -109.9094 69° East 530 610 37,000  Level Denver Center
05:56PM 37.7053 -109.7153 70° East 526 605 37,000  Level Denver Center
05:57PM 37.7631 -109.5208 69° East 528 608 37,000  Level Denver Center
05:58PM 37.8111 -109.3544 70° East 528 608 37,000  Level Denver Center
05:59PM 37.8678 -109.1578 70° East 532 612 37,000  Level Denver Center
06:00PM 37.9161 -108.9883 70° East 533 613 37,000  Level Denver Center
06:01PM 37.9725 -108.7908 70° East 532 612 37,000  Level Denver Center
06:02PM 38.0200 -108.6222 70° East 531 611 37,000  Level Denver Center
06:03PM 38.0689 -108.4469 70° East 536 617 37,000  Level Denver Center
06:04PM 38.1236 -108.2492 71° East 534 615 37,000  Level Denver Center
06:05PM 38.1703 -108.0803 71° East 530 610 37,000  Level Denver Center
06:06PM 38.2247 -107.8864 70° East 525 604 37,000  Level Denver Center
06:07PM 38.2689 -107.7183 71° East 526 605 37,000  Level Denver Center
06:08PM 38.3222 -107.5231 71° East 525 604 37,000  Level Denver Center
06:09PM 38.3611 -107.3819 71° East 527 606 37,000  Level Denver Center
06:11PM 38.4136 -107.1842 71° East 522 601 37,000  Level Denver Center
06:12PM 38.4619 -107.0092 71° East 525 604 37,000  Level Denver Center
06:13PM 38.5358 -106.8072 65° Northeast 528 608 37,000  Level Denver Center
06:14PM 38.5969 -106.6378 65° Northeast 526 605 37,000  Level Denver Center
06:15PM 38.6572 -106.4672 66° East 529 609 37,000  Level Denver Center
06:16PM 38.7172 -106.2967 66° East 530 610 37,000  Level Denver Center
06:17PM 38.7836 -106.1092 66° East 531 611 37,000  Level Denver Center
06:18PM 38.8436 -105.9358 66° East 533 613 37,000  Level Denver Center
06:19PM 38.9044 -105.7639 66° East 532 612 37,000  Level Denver Center
06:20PM 38.9767 -105.5569 66° East 531 611 37,000  Level Denver Center
06:21PM 39.0361 -105.3833 66° East 532 612 37,000  Level Denver Center
06:22PM 39.0947 -105.2111 66° East 529 609 37,000  Level Denver Center
06:23PM 39.1550 -105.0378 66° East 534 615 37,000  Level Denver Center
06:24PM 39.2119 -104.8681 67° East 521 600 37,000  Level Denver Center
06:25PM 39.2800 -104.6631 67° East 523 602 37,000  Level Denver Center
06:26PM 39.3475 -104.4589 67° East 526 605 37,000  Level Denver Center
06:27PM 39.4042 -104.2889 67° East 524 603 37,000  Level Denver Center
06:28PM 39.4500 -104.1519 67° East 524 603 37,000  Level Denver Center
06:29PM 39.5275 -103.9519 63° Northeast 518 596 37,000  Level Denver Center
06:30PM 39.6044 -103.7506 64° Northeast 525 604 37,000  Level Denver Center
06:31PM 39.6672 -103.5869 63° Northeast 513 590 37,000  Level Denver Center
06:32PM 39.7311 -103.4192 64° Northeast 519 597 37,000  Level Denver Center
06:33PM 39.7958 -103.2525 63° Northeast 518 596 37,000  Level Denver Center
06:34PM 39.8592 -103.0853 64° Northeast 518 596 37,000  Level Denver Center
06:36PM 39.9253 -102.9172 63° Northeast 522 601 37,000  Level Denver Center
06:37PM 39.9994 -102.7139 64° Northeast 519 597 37,000  Level Denver Center
06:38PM 40.0261 -102.5392 79° East 519 597 37,000  Level Denver Center
06:39PM 40.0453 -102.3239 83° East 534 615 37,000  Level Denver Center
06:40PM 40.0636 -102.1422 82° East 530 610 37,000  Level Denver Center
06:41PM 40.0831 -101.9289 83° East 533 613 37,000  Level Denver Center
06:42PM 40.1017 -101.7467 82° East 530 610 37,000  Level Denver Center
06:43PM 40.1206 -101.5342 83° East 530 610 37,000  Level Denver Center
06:44PM 40.1369 -101.3550 83° East 523 602 37,000  Level Denver Center
06:45PM 40.1511 -101.2050 83° East 523 602 37,000  Level Denver Center
06:46PM 40.1719 -100.9650 83° East 523 602 37,000  Level Denver Center
06:47PM 40.1892 -100.7567 84° East 520 598 37,000  Level Denver Center
06:48PM 40.2061 -100.5783 83° East 521 600 37,000  Level Denver Center
06:49PM 40.2467 -100.3753 75° East 522 601 37,000  Level Denver Center
06:50PM 40.2814 -100.2014 75° East 520 598 37,000  Level Denver Center
06:51PM 40.3103 -100.0564 75° East 519 597 37,000  Level Denver Center
06:52PM 40.3517 -99.8469 75° East 513 590 37,000  Level Denver Center
06:53PM 40.3933 -99.6303 76° East 513 590 37,000  Level Denver Center
06:54PM 40.4342 -99.4147 76° East 510 587 37,000  Level Denver Center
06:55PM 40.4689 -99.2361 76° East 508 585 37,000  Level Denver Center
06:56PM 40.4956 -99.0944 76° East 510 587 37,000  Level Minneapolis Center
06:57PM 40.5361 -98.8789 76° East 510 587 37,000  Level Minneapolis Center
06:58PM 40.5686 -98.6997 77° East 508 585 37,000  Level Minneapolis Center
06:59PM 40.6081 -98.4836 76° East 510 587 37,000  Level Minneapolis Center
07:00PM 40.6403 -98.3039 77° East 510 587 37,000  Level Minneapolis Center
07:02PM 40.6725 -98.1231 77° East 511 588 37,000  Level Minneapolis Center
07:03PM 40.7042 -97.9406 77° East 513 590 37,000  Level Minneapolis Center
07:04PM 40.7358 -97.7586 77° East 513 590 37,000  Level Minneapolis Center
07:05PM 40.7747 -97.5394 77° East 513 590 37,000  Level Minneapolis Center
07:06PM 40.8061 -97.3556 77° East 515 593 37,000  Level Minneapolis Center
07:07PM 40.8378 -97.1633 78° East 513 590 37,000  Level Minneapolis Center
07:08PM 40.8697 -96.9803 77° East 514 592 37,000  Level Minneapolis Center
07:09PM 40.9003 -96.7969 78° East 512 589 37,000  Level Minneapolis Center
07:10PM 40.9300 -96.6136 78° East 512 589 37,000  Level Minneapolis Center
07:11PM 40.9597 -96.4322 78° East 510 587 37,000  Level Minneapolis Center
07:12PM 40.9947 -96.2164 78° East 507 583 37,000  Level Minneapolis Center
07:13PM 41.0225 -96.0372 78° East 504 580 37,000  Level Minneapolis Center
07:14PM 41.0514 -95.8583 78° East 503 579 37,000  Level Minneapolis Center
07:15PM 41.0794 -95.6767 78° East 506 582 37,000  Level Minneapolis Center
07:16PM 41.1078 -95.4942 78° East 509 586 37,000  Level Minneapolis Center
07:17PM 41.1425 -95.2744 78° East 510 587 37,000  Level Minneapolis Center
07:18PM 41.1700 -95.0894 79° East 513 590 37,000  Level Minneapolis Center
07:19PM 41.1969 -94.9044 79° East 512 589 37,000  Level Minneapolis Center
07:20PM 41.2303 -94.6808 79° East 515 593 37,000  Level Minneapolis Center
07:21PM 41.2628 -94.4542 79° East 520 598 37,000  Level Minneapolis Center
07:22PM 41.2894 -94.2642 79° East 523 602 37,000  Level Minneapolis Center
07:23PM 41.3144 -94.0864 79° East 523 602 37,000  Level Minneapolis Center
07:25PM 41.3411 -93.8958 79° East 525 604 37,000  Level Minneapolis Center
07:26PM 41.3781 -93.6300 79° East 526 605 37,000  Level Minneapolis Center
07:27PM 41.4050 -93.4375 79° East 528 608 37,000  Level Minneapolis Center
07:28PM 41.4306 -93.2456 80° East 529 609 37,000  Level Minneapolis Center
07:29PM 41.4556 -93.0531 80° East 529 609 37,000  Level Minneapolis Center
07:30PM 41.4811 -92.8619 80° East 528 608 37,000  Level Minneapolis Center
07:31PM 41.5053 -92.6722 80° East 525 604 37,000  Level Minneapolis Center
07:31PM 41.5181 -92.5683 81° East 525 604 37,000  Level Chicago Center
07:32PM 41.5467 -92.3403 80° East 527 606 37,000  Level Chicago Center
07:34PM 41.5700 -92.1489 81° East 528 608 37,000  Level Chicago Center
07:35PM 41.5928 -91.9619 81° East 524 603 37,000  Level Chicago Center
07:36PM 41.6158 -91.7728 81° East 523 602 37,000  Level Chicago Center
07:37PM 41.6383 -91.5833 81° East 523 602 37,000  Level Chicago Center
07:38PM 41.6647 -91.3553 81° East 526 605 37,000  Level Chicago Center
07:39PM 41.6864 -91.1650 81° East 526 605 37,000  Level Chicago Center
07:40PM 41.7083 -90.9747 81° East 526 605 37,000  Level Chicago Center
07:41PM 41.7292 -90.7842 82° East 526 605 37,000  Level Chicago Center
07:42PM 41.7522 -90.5706 82° East 524 603 37,000  Level Chicago Center
07:43PM 41.7658 -90.3769 85° East 522 601 37,000  Level Chicago Center
07:44PM 41.7786 -90.1842 85° East 519 597 37,000  Level Chicago Center
07:45PM 41.7928 -89.9900 84° East 521 600 37,000  Level Chicago Center
07:46PM 41.8058 -89.7781 85° East 521 600 37,000  Level Chicago Center
07:47PM 41.8211 -89.5531 85° East 521 600 37,000  Level Chicago Center
07:48PM 41.8331 -89.3650 85° East 528 608 37,000  Level Chicago Center
07:49PM 41.8444 -89.1611 86° East 524 603 37,000  Level Chicago Center
07:50PM 41.8569 -88.9642 85° East 529 609 37,000  Level Chicago Center
07:51PM 41.8678 -88.7681 86° East 531 611 37,000  Level Chicago Center
07:52PM 41.8803 -88.5400 86° East 528 608 37,000  Level Chicago Center
07:53PM 41.8914 -88.3414 86° East 532 612 37,000  Level Chicago Center
07:54PM 41.9019 -88.1453 86° East 532 612 37,000  Level Chicago Center
07:55PM 41.9119 -87.9481 86° East 532 612 37,000  Level Chicago Center
07:56PM 41.9217 -87.7525 86° East 528 608 37,000  Level Chicago Center
07:57PM 41.9317 -87.5281 86° East 520 598 37,000  Level Chicago Center
07:58PM 41.9403 -87.3489 86° East 521 600 37,000  Level Chicago Center
07:59PM 41.9489 -87.1542 87° East 522 601 37,000  Level Chicago Center
08:00PM 41.9589 -86.9217 87° East 522 601 37,000  Level Chicago Center
08:02PM 41.9664 -86.7261 87° East 524 603 37,000  Level Chicago Center
08:03PM 41.9733 -86.5319 87° East 520 598 37,000  Level Chicago Center
08:04PM 41.9811 -86.3356 87° East 525 604 37,000  Level Chicago Center
08:05PM 41.9875 -86.1397 87° East 526 605 37,000 -300 Level Chicago Center
08:06PM 41.9953 -85.9031 87° East 526 605 36,400 -780 Descending Chicago Center
08:07PM 42.0022 -85.7061 87° East 526 605 35,400 -960 Descending Chicago Center
08:08PM 41.9942 -85.5061 93° East 533 613 34,500 -840 Descending Chicago Center
08:09PM 41.9786 -85.3067 96° East 533 613 33,700 -780 Descending Chicago Center
08:10PM 41.9689 -85.1078 94° East 529 609 33,000 -540 Descending Chicago Center
08:11PM 41.9811 -84.9136 85° East 519 597 32,600 -720 Descending Chicago Center
08:12PM 41.9908 -84.7081 86° East 523 602 31,600 -960 Descending Chicago Center
08:13PM 42.0008 -84.5167 86° East 521 600 30,700 -960 Descending Chicago Center
08:14PM 42.0094 -84.3275 86° East 514 592 29,700 -840 Descending Chicago Center
08:15PM 42.0206 -84.1011 86° East 509 586 29,000 -600 Descending Chicago Center
08:16PM 42.0292 -83.9114 86° East 510 587 28,500 -720 Descending Chicago Center
08:17PM 42.0389 -83.7208 86° East 511 588 27,600 -960 Descending Chicago Center
08:18PM 42.0439 -83.4911 88° East 512 589 26,400 -1,020 Descending Cleveland Center
08:19PM 42.0319 -83.3033 95° East 512 589 25,400 -1,740 Descending Cleveland Center
08:20PM 42.0133 -83.1153 98° East 512 589 23,000 -2,580 Descending Cleveland Center
08:21PM 41.9961 -82.9414 98° East 495 570 20,300 -1,500 Descending Cleveland Center
08:22PM 41.9786 -82.7758 98° East 467 537 20,000 -960 Descending Cleveland Center
08:23PM 41.9647 -82.6244 97° East 433 498 18,400 -2,520 Descending Cleveland Center
08:24PM 41.9339 -82.4756 106° East 416 479 15,000 -3,420 Descending Cleveland Center
08:25PM 41.9081 -82.3967 114° Southeast 424 488 13,300 -2,700 Descending Cleveland Center
08:25PM 41.8903 -82.3347 111° Southeast 410 472 12,300 -2,460 Descending Cleveland Center
08:26PM 41.8642 -82.2617 116° Southeast 387 445 10,800 -1,740 Descending Cleveland Center
08:27PM 41.8119 -82.1350 119° Southeast 356 410 9,700 -1,080 Descending Cleveland Center
08:28PM 41.7419 -82.0692 145° Southeast 285 328 8,700 -1,380 Descending Cleveland Center
08:29PM 41.6739 -82.0119 148° Southeast 288 331 7,000 -1,500 Descending Cleveland Center
08:30PM 41.6289 -81.9278 126° Southeast 274 315 5,700 -1,080 Descending Cleveland Center
08:31PM 41.5925 -81.8436 120° Southeast 252 290 4,900 -1,140 Descending Cleveland Center
08:32PM 41.5578 -81.7653 121° Southeast 246 283 3,400 -1,020 Descending Cleveland Center
08:33PM 41.5039 -81.7339 156° South 215 247 2,900 -600 Descending Cleveland Center
08:34PM 41.4639 -81.7719 215° Southwest 158 182 2,200 -720 Descending Cleveland Center
08:35PM 41.4364 -81.8128 228° Southwest 147 169 1,500 -720 Descending Cleveland Center